createdAt,value
2023-04-18T00:01:28.992Z,70.91
2023-04-18T00:03:58.072Z,71.10
2023-04-18T00:06:25.948Z,70.85
2023-04-18T00:08:53.900Z,70.72
2023-04-18T00:11:21.810Z,70.93
2023-04-18T00:13:49.547Z,71.24
2023-04-18T00:16:17.422Z,71.31
2023-04-18T00:18:45.373Z,71.37
2023-04-18T00:21:13.851Z,71.54
2023-04-18T00:23:41.712Z,71.43
2023-04-18T00:26:09.407Z,71.64
2023-04-18T00:28:37.871Z,71.67
2023-04-18T00:31:05.734Z,72.03
2023-04-18T00:33:34.604Z,71.87
2023-04-18T00:36:03.371Z,72.17
2023-04-18T00:38:31.097Z,72.13
2023-04-18T00:40:58.865Z,71.93
2023-04-18T00:43:26.938Z,71.74
2023-04-18T00:45:57.027Z,71.72
2023-04-18T00:48:25.664Z,71.71
2023-04-18T00:50:55.122Z,71.76
2023-04-18T00:53:23.068Z,71.89
2023-04-18T00:55:51.358Z,71.91
2023-04-18T00:58:19.120Z,72.15
2023-04-18T01:00:47.201Z,72.11
2023-04-18T01:03:18.648Z,72.25
2023-04-18T01:05:47.162Z,72.10
2023-04-18T01:08:15.104Z,71.97
2023-04-18T01:10:42.920Z,71.80
2023-04-18T01:13:15.980Z,71.65
2023-04-18T01:15:45.750Z,71.62
2023-04-18T01:18:19.173Z,71.88
2023-04-18T01:20:49.080Z,71.97
2023-04-18T01:23:18.127Z,72.21
2023-04-18T01:25:49.210Z,72.46
2023-04-18T01:28:21.287Z,72.43
2023-04-18T01:30:50.344Z,72.45
2023-04-18T01:33:18.801Z,72.51
2023-04-18T01:35:48.217Z,72.68
2023-04-18T01:38:15.962Z,72.83
2023-04-18T01:40:44.183Z,72.71
2023-04-18T01:43:12.018Z,72.88
2023-04-18T01:45:39.832Z,72.90
2023-04-18T01:48:09.853Z,72.91
2023-04-18T01:50:37.646Z,72.91
2023-04-18T01:53:05.623Z,73.15
2023-04-18T01:55:33.557Z,73.34
2023-04-18T01:58:01.426Z,72.91
2023-04-18T02:00:29.312Z,72.99
2023-04-18T02:02:59.509Z,73.26
2023-04-18T02:05:27.616Z,73.12
2023-04-18T02:07:55.945Z,72.88
2023-04-18T02:10:24.487Z,72.85
2023-04-18T02:12:52.371Z,73.00
2023-04-18T02:15:21.116Z,73.01
2023-04-18T02:17:49.176Z,73.09
2023-04-18T02:20:17.292Z,73.30
2023-04-18T02:22:46.310Z,73.27
2023-04-18T02:25:14.120Z,73.19
2023-04-18T02:27:41.940Z,73.01
2023-04-18T02:30:10.078Z,72.97
2023-04-18T02:32:37.968Z,73.18
2023-04-18T02:35:06.562Z,73.28
2023-04-18T02:37:34.507Z,73.34
2023-04-18T02:40:05.018Z,73.40
2023-04-18T02:42:33.121Z,73.48
2023-04-18T02:45:02.286Z,73.45
2023-04-18T02:47:33.395Z,73.43
2023-04-18T02:50:06.641Z,73.56
2023-04-18T02:52:34.855Z,73.69
2023-04-18T02:55:03.033Z,73.51
2023-04-18T02:57:35.243Z,73.82
2023-04-18T03:00:38.251Z,73.94
2023-04-18T03:03:25.237Z,73.97
2023-04-18T03:06:16.816Z,74.11
2023-04-18T03:08:44.544Z,74.10
2023-04-18T03:11:12.304Z,74.26
2023-04-18T03:13:40.067Z,73.92
2023-04-18T03:16:08.504Z,73.32
2023-04-18T03:18:36.719Z,73.11
2023-04-18T03:21:04.505Z,73.24
2023-04-18T03:23:33.366Z,73.24
2023-04-18T03:26:02.253Z,73.09
2023-04-18T03:28:31.896Z,73.28
2023-04-18T03:30:59.719Z,73.24
2023-04-18T03:33:28.821Z,73.13
2023-04-18T03:36:03.226Z,73.18
2023-04-18T03:38:30.872Z,73.21
2023-04-18T03:40:58.573Z,73.36
2023-04-18T03:43:32.320Z,73.48
2023-04-18T03:46:00.675Z,73.73
2023-04-18T03:48:29.768Z,73.76
2023-04-18T03:51:00.899Z,73.48
2023-04-18T03:53:28.900Z,73.27
2023-04-18T03:55:56.945Z,73.08
2023-04-18T03:58:29.587Z,73.23
2023-04-18T04:00:57.988Z,73.03
2023-04-18T04:03:27.932Z,73.45
2023-04-18T04:05:56.542Z,73.60
2023-04-18T04:08:25.092Z,73.50
2023-04-18T04:10:54.200Z,73.48
2023-04-18T04:13:24.271Z,73.56
2023-04-18T04:15:52.088Z,73.81
2023-04-18T04:18:20.314Z,73.88
2023-04-18T04:20:48.086Z,73.76
2023-04-18T04:23:29.451Z,73.31
2023-04-18T04:25:58.586Z,73.15
2023-04-18T04:28:46.736Z,73.18
2023-04-18T04:31:16.487Z,73.46
2023-04-18T04:33:44.912Z,73.56
2023-04-18T04:36:19.185Z,73.45
2023-04-18T04:38:49.123Z,73.65
2023-04-18T04:41:18.091Z,73.90
2023-04-18T04:43:47.104Z,73.70
2023-04-18T04:46:20.131Z,73.39
2023-04-18T04:48:50.021Z,73.44
2023-04-18T04:51:17.801Z,73.05
2023-04-18T04:53:45.596Z,73.29
2023-04-18T04:56:13.731Z,73.40
2023-04-18T04:58:41.463Z,73.37
2023-04-18T05:01:25.752Z,73.36
2023-04-18T05:03:54.848Z,73.45
2023-04-18T05:06:23.030Z,73.42
2023-04-18T05:08:51.025Z,73.45
2023-04-18T05:11:18.866Z,73.37
2023-04-18T05:13:46.535Z,73.30
2023-04-18T05:16:14.278Z,73.20
2023-04-18T05:18:42.209Z,73.16
2023-04-18T05:21:10.552Z,73.38
2023-04-18T05:23:38.253Z,73.34
2023-04-18T05:26:05.970Z,73.19
2023-04-18T05:28:33.611Z,73.11
2023-04-18T05:31:01.449Z,73.04
2023-04-18T05:33:32.607Z,73.09
2023-04-18T05:36:00.248Z,72.92
2023-04-18T05:38:27.948Z,73.17
2023-04-18T05:40:56.009Z,72.97
2023-04-18T05:43:23.870Z,73.10
2023-04-18T05:45:52.805Z,73.28
2023-04-18T05:48:21.396Z,73.22
2023-04-18T05:50:49.057Z,73.44
2023-04-18T05:53:16.713Z,73.01
2023-04-18T05:55:46.504Z,73.16
2023-04-18T05:58:14.815Z,73.10
2023-04-18T06:00:42.789Z,73.14
2023-04-18T06:03:11.300Z,73.42
2023-04-18T06:05:41.013Z,73.33
2023-04-18T06:08:08.784Z,73.22
2023-04-18T06:10:38.864Z,73.12
2023-04-18T06:13:06.868Z,73.02
2023-04-18T06:15:34.842Z,73.21
2023-04-18T06:18:02.712Z,73.39
2023-04-18T06:20:30.797Z,73.55
2023-04-18T06:22:58.436Z,73.67
2023-04-18T06:25:26.243Z,73.43
2023-04-18T06:27:54.043Z,73.24
2023-04-18T06:30:22.311Z,72.96
2023-04-18T06:32:50.179Z,73.34
2023-04-18T06:35:17.874Z,73.21
2023-04-18T06:37:45.532Z,73.55
2023-04-18T06:40:13.312Z,73.91
2023-04-18T06:42:41.973Z,73.62
2023-04-18T06:45:11.927Z,73.82
2023-04-18T06:47:39.915Z,73.80
2023-04-18T06:50:07.937Z,73.51
2023-04-18T06:52:40.518Z,73.19
2023-04-18T06:55:09.202Z,73.25
2023-04-18T06:57:41.129Z,73.37
2023-04-18T07:00:10.081Z,73.43
2023-04-18T07:02:38.393Z,73.31
2023-04-18T07:05:06.682Z,72.91
2023-04-18T07:07:34.833Z,73.16
2023-04-18T07:10:02.543Z,73.03
2023-04-18T07:12:30.170Z,73.10
2023-04-18T07:14:57.803Z,73.37
2023-04-18T07:17:25.541Z,73.49
2023-04-18T07:19:53.253Z,73.16
2023-04-18T07:22:21.063Z,73.30
2023-04-18T07:24:48.751Z,73.45
2023-04-18T07:27:16.524Z,73.50
2023-04-18T07:29:44.138Z,73.45
2023-04-18T07:32:11.792Z,73.43
2023-04-18T07:34:40.371Z,73.26
2023-04-18T07:37:08.125Z,73.47
2023-04-18T07:39:36.203Z,73.48
2023-04-18T07:42:04.082Z,73.56
2023-04-18T07:44:31.754Z,73.63
2023-04-18T07:46:59.450Z,73.38
2023-04-18T07:49:27.733Z,73.20
2023-04-18T07:51:55.945Z,73.08
2023-04-18T07:54:23.773Z,73.08
2023-04-18T07:56:51.464Z,73.29
2023-04-18T07:59:19.302Z,73.05
2023-04-18T13:02:41.691Z,72.93
2023-04-18T13:05:11.979Z,72.80
2023-04-18T13:07:40.739Z,71.72
2023-04-18T13:10:09.594Z,71.43
2023-04-18T13:12:38.046Z,70.89
2023-04-18T13:15:07.260Z,70.89
2023-04-18T13:17:38.830Z,70.09
2023-04-18T13:20:10.645Z,69.69
2023-04-18T13:22:39.582Z,68.16
2023-04-18T13:25:10.400Z,68.15
2023-04-18T13:27:41.391Z,68.45
2023-04-18T13:30:10.989Z,68.08
2023-04-18T13:32:40.520Z,68.03
2023-04-18T13:35:10.893Z,68.04
2023-04-18T13:37:39.173Z,67.59
2023-04-18T13:40:07.970Z,67.62
2023-04-18T13:42:37.315Z,67.55
2023-04-18T13:45:05.861Z,67.15
2023-04-18T13:47:38.683Z,66.83
2023-04-18T13:50:07.369Z,66.70
2023-04-18T13:52:35.392Z,66.07
2023-04-18T13:55:03.981Z,65.99
2023-04-18T13:57:33.788Z,65.84
2023-04-18T14:00:01.645Z,65.59
2023-04-18T14:02:40.746Z,65.66
2023-04-18T14:05:09.362Z,66.09
2023-04-18T14:07:38.439Z,66.69
2023-04-18T14:10:06.862Z,66.36
2023-04-18T14:12:35.311Z,65.80
2023-04-18T14:15:03.502Z,65.03
2023-04-18T14:17:31.470Z,65.25
2023-04-18T14:19:59.399Z,65.61
2023-04-18T14:22:27.180Z,65.92
2023-04-18T14:24:56.182Z,65.63
2023-04-18T14:27:30.705Z,65.24
2023-04-18T14:29:59.789Z,65.01
2023-04-18T14:32:27.678Z,65.13
2023-04-18T14:34:56.516Z,65.04
2023-04-18T14:37:24.559Z,64.54
2023-04-18T14:39:52.567Z,64.10
2023-04-18T14:42:20.878Z,63.75
2023-04-18T14:44:48.662Z,63.18
2023-04-18T14:47:16.480Z,62.46
2023-04-18T14:49:44.204Z,60.82
2023-04-18T14:52:12.222Z,60.80
2023-04-18T14:54:40.082Z,61.00
2023-04-18T14:57:08.520Z,60.25
2023-04-18T14:59:36.264Z,59.15
2023-04-18T15:02:04.120Z,59.00
2023-04-18T15:04:32.118Z,58.87
2023-04-18T15:06:59.899Z,58.14
2023-04-18T15:09:28.462Z,58.20
2023-04-18T15:11:58.260Z,58.68
2023-04-18T15:14:26.123Z,59.06
2023-04-18T15:16:54.044Z,59.12
2023-04-18T15:19:21.883Z,59.27
2023-04-18T15:21:49.677Z,58.63
2023-04-18T15:24:17.469Z,57.55
2023-04-18T15:26:45.685Z,57.05
2023-04-18T15:29:13.492Z,57.57
2023-04-18T15:31:41.546Z,57.89
2023-04-18T15:34:09.623Z,57.47
2023-04-18T15:36:37.559Z,57.32
2023-04-18T15:39:05.911Z,57.33
2023-04-18T15:41:35.548Z,57.83
2023-04-18T15:44:04.933Z,58.33
2023-04-18T15:46:34.798Z,58.36
2023-04-18T15:49:02.838Z,58.71
2023-04-18T15:51:31.022Z,58.98
2023-04-18T15:53:59.033Z,59.49
2023-04-18T15:56:27.243Z,60.05
2023-04-18T15:58:56.539Z,60.68
2023-04-18T16:01:24.309Z,60.97
2023-04-18T16:03:52.358Z,61.31
2023-04-18T16:06:23.587Z,61.50
2023-04-18T16:08:51.363Z,61.61
2023-04-18T16:11:19.844Z,61.92
2023-04-18T16:13:47.803Z,61.89
2023-04-18T16:16:15.858Z,61.87
2023-04-18T16:18:43.664Z,62.36
2023-04-18T16:21:17.418Z,62.54
2023-04-18T16:23:45.148Z,63.03
2023-04-18T16:26:12.897Z,63.09
2023-04-18T16:28:42.055Z,63.28
2023-04-18T16:31:09.930Z,63.59
2023-04-18T16:33:38.983Z,63.96
2023-04-18T16:36:07.334Z,64.06
2023-04-18T16:38:35.143Z,64.26
2023-04-18T16:41:03.756Z,64.43
2023-04-18T16:43:36.298Z,64.63
2023-04-18T16:46:04.421Z,64.76
2023-04-18T16:48:32.918Z,64.94
2023-04-18T16:51:01.208Z,64.90
2023-04-18T16:53:29.001Z,64.92
2023-04-18T16:55:56.800Z,64.88
2023-04-18T16:58:24.584Z,65.23
2023-04-18T17:00:52.836Z,65.24
2023-04-18T17:03:21.002Z,65.11
2023-04-18T17:05:49.158Z,65.02
2023-04-18T17:08:16.972Z,64.98
2023-04-18T17:10:44.783Z,64.96
2023-04-18T17:13:12.638Z,65.28
2023-04-18T17:15:43.024Z,65.29
2023-04-18T17:18:10.976Z,65.49
2023-04-18T17:20:38.870Z,65.44
2023-04-18T17:23:06.757Z,65.55
2023-04-18T17:25:35.060Z,65.57
2023-04-18T17:28:05.995Z,65.59
2023-04-18T17:30:33.843Z,65.48
2023-04-18T17:33:01.765Z,65.35
2023-04-18T17:35:29.827Z,65.47
2023-04-18T17:37:57.989Z,65.54
2023-04-18T17:40:26.277Z,65.70
2023-04-18T17:42:54.140Z,65.88
2023-04-18T17:45:22.101Z,65.93
2023-04-18T17:47:50.988Z,65.90
2023-04-18T17:50:19.609Z,65.95
2023-04-18T17:52:49.819Z,65.88
2023-04-18T17:55:18.110Z,66.01
2023-04-18T17:57:46.560Z,65.84
2023-04-18T18:00:15.906Z,65.85
2023-04-18T18:02:44.596Z,65.96
2023-04-18T18:05:13.551Z,65.78
2023-04-18T18:07:47.279Z,66.01
2023-04-18T18:10:19.063Z,66.08
2023-04-18T18:12:47.033Z,66.07
2023-04-18T18:15:15.041Z,65.99
2023-04-18T18:17:42.919Z,66.09
2023-04-18T18:20:11.184Z,66.04
2023-04-18T18:22:39.286Z,66.08
2023-04-18T18:25:07.965Z,66.27
2023-04-18T18:27:36.648Z,66.36
2023-04-18T18:30:05.850Z,66.59
2023-04-18T18:32:34.319Z,66.52
2023-04-18T18:35:02.701Z,66.27
2023-04-18T18:37:30.841Z,66.46
2023-04-18T18:40:00.213Z,66.49
2023-04-18T18:42:30.550Z,66.60
2023-04-18T18:44:58.310Z,66.71
2023-04-18T18:47:26.498Z,66.78
2023-04-18T18:49:54.460Z,66.50
2023-04-18T18:52:24.751Z,66.17
2023-04-18T18:54:52.773Z,66.18
2023-04-18T18:57:21.385Z,66.25
2023-04-18T18:59:54.511Z,66.02
2023-04-18T19:02:24.012Z,65.73
2023-04-18T19:04:52.180Z,65.97
2023-04-18T19:07:20.398Z,65.88
2023-04-18T19:09:48.309Z,65.79
2023-04-18T19:12:16.290Z,65.63
2023-04-18T19:15:17.422Z,65.81
2023-04-18T19:17:49.704Z,65.82
2023-04-18T19:20:19.376Z,65.59
2023-04-18T19:23:03.532Z,65.77
2023-04-18T19:29:25.240Z,65.33
2023-04-18T19:32:25.539Z,65.36
2023-04-18T19:35:25.743Z,65.23
2023-04-18T19:38:01.370Z,65.30
2023-04-18T19:40:29.908Z,65.38
2023-04-18T19:42:58.135Z,65.41
2023-04-18T19:45:26.370Z,65.39
2023-04-18T19:47:54.203Z,65.35
2023-04-18T19:50:22.064Z,65.51
2023-04-18T19:52:50.057Z,65.52
2023-04-18T19:55:17.847Z,65.56
2023-04-18T19:57:45.884Z,65.82
2023-04-18T20:00:14.518Z,65.61
2023-04-18T20:02:43.253Z,65.57
2023-04-18T20:05:12.891Z,65.72
2023-04-18T20:07:41.814Z,65.46
2023-04-18T20:10:10.720Z,65.64
2023-04-18T20:12:38.471Z,65.61
2023-04-18T20:15:07.227Z,65.41
2023-04-18T20:17:35.430Z,65.30
2023-04-18T20:20:04.641Z,65.23
2023-04-18T20:22:32.539Z,64.87
2023-04-18T20:25:01.743Z,64.95
2023-04-18T20:27:30.059Z,65.38
2023-04-18T20:29:57.805Z,65.38
2023-04-18T20:32:27.186Z,65.23
2023-04-18T20:34:55.017Z,65.23
2023-04-18T20:37:23.298Z,65.35
2023-04-18T20:39:54.690Z,65.20
2023-04-18T20:42:22.714Z,64.98
2023-04-18T20:44:50.634Z,64.96
2023-04-18T20:47:18.688Z,64.80
2023-04-18T20:49:46.903Z,64.80
2023-04-18T20:52:14.933Z,64.77
2023-04-18T20:54:42.879Z,64.78
2023-04-18T20:57:10.660Z,64.88
2023-04-18T20:59:38.610Z,64.85
2023-04-18T21:02:07.215Z,64.57
2023-04-18T21:04:35.267Z,64.66
2023-04-18T21:07:03.275Z,64.64
2023-04-18T21:09:36.330Z,64.51
2023-04-18T21:12:05.423Z,64.53
2023-04-18T21:14:33.185Z,64.21
2023-04-18T21:17:01.755Z,64.07
2023-04-18T21:19:29.500Z,63.95
2023-04-18T21:21:57.364Z,63.79
2023-04-18T21:24:25.215Z,63.54
2023-04-18T21:26:53.292Z,63.53
2023-04-18T21:29:21.682Z,63.48
2023-04-18T21:31:51.611Z,63.50
2023-04-18T21:34:20.095Z,63.65
2023-04-18T21:36:48.008Z,63.91
2023-04-18T21:39:16.199Z,64.06
2023-04-18T21:41:44.619Z,64.10
2023-04-18T21:44:12.958Z,64.13
2023-04-18T21:46:41.008Z,64.37
2023-04-18T21:49:08.731Z,64.29
2023-04-18T21:51:36.580Z,64.38
2023-04-18T21:54:04.673Z,64.74
2023-04-18T21:56:32.449Z,64.79
2023-04-18T21:59:00.373Z,64.95
2023-04-18T22:01:28.297Z,65.29
2023-04-18T22:03:56.297Z,65.19
2023-04-18T22:06:24.286Z,65.38
2023-04-18T22:08:52.292Z,65.32
2023-04-18T22:11:20.222Z,65.37
2023-04-18T22:13:50.134Z,65.34
2023-04-18T22:16:17.938Z,65.30
2023-04-18T22:18:45.719Z,65.39
2023-04-18T22:21:13.511Z,65.35
2023-04-18T22:23:41.278Z,65.37
2023-04-18T22:26:09.623Z,65.58
2023-04-18T22:28:37.929Z,65.76
2023-04-18T22:31:05.847Z,66.04
2023-04-18T22:33:34.262Z,65.99
2023-04-18T22:36:02.547Z,65.99
2023-04-18T22:38:30.337Z,66.23
2023-04-18T22:40:59.532Z,66.18
2023-04-18T22:43:27.324Z,65.95
2023-04-18T22:45:55.696Z,66.08
2023-04-18T22:48:23.718Z,65.95
2023-04-18T22:50:51.600Z,65.77
2023-04-18T22:53:19.763Z,65.86
2023-04-18T22:55:48.336Z,65.99
2023-04-18T22:58:16.238Z,66.05
2023-04-18T23:00:44.067Z,66.11
2023-04-18T23:03:12.174Z,66.28
2023-04-18T23:05:41.115Z,66.15
2023-04-18T23:08:09.014Z,65.84
2023-04-18T23:10:36.802Z,65.85
2023-04-18T23:13:04.685Z,65.38
2023-04-18T23:15:32.553Z,65.36
2023-04-18T23:18:00.527Z,65.41
2023-04-18T23:20:28.294Z,65.20
2023-04-18T23:22:56.716Z,65.07
2023-04-18T23:25:24.592Z,65.16
2023-04-18T23:27:52.424Z,65.37
2023-04-18T23:30:20.238Z,65.37
2023-04-18T23:32:48.107Z,65.38
2023-04-18T23:35:15.975Z,65.41
2023-04-18T23:37:43.820Z,65.35
2023-04-18T23:40:11.570Z,65.47
2023-04-18T23:42:39.596Z,65.55
2023-04-18T23:45:08.036Z,65.38
2023-04-18T23:47:36.388Z,65.26
2023-04-18T23:50:04.927Z,65.36
2023-04-18T23:52:32.707Z,65.13
2023-04-18T23:55:01.220Z,65.06
2023-04-18T23:57:29.172Z,64.91
2023-04-18T23:59:56.975Z,64.73
